sensor_id;sensor_type;location;lat;lon;timestamp;P1;durP1;ratioP1;P2;durP2;ratioP2
12135;SDS011;6131;56.420;15.548;2023-03-17T00:00:35;7.80;;;1.17;;
12135;SDS011;6131;56.420;15.548;2023-03-17T00:03:01;2.00;;;1.10;;
12135;SDS011;6131;56.420;15.548;2023-03-17T00:05:29;5.97;;;1.23;;
12135;SDS011;6131;56.420;15.548;2023-03-17T00:07:58;3.83;;;1.30;;
12135;SDS011;6131;56.420;15.548;2023-03-17T00:10:26;2.90;;;1.10;;
12135;SDS011;6131;56.420;15.548;2023-03-17T00:12:52;3.90;;;1.37;;
12135;SDS011;6131;56.420;15.548;2023-03-17T00:15:19;5.30;;;1.57;;
12135;SDS011;6131;56.420;15.548;2023-03-17T00:17:46;1.70;;;1.20;;
12135;SDS011;6131;56.420;15.548;2023-03-17T00:20:16;1.97;;;1.27;;
12135;SDS011;6131;56.420;15.548;2023-03-17T00:22:43;3.50;;;1.30;;
12135;SDS011;6131;56.420;15.548;2023-03-17T00:25:20;4.77;;;1.20;;
12135;SDS011;6131;56.420;15.548;2023-03-17T00:27:47;3.80;;;1.23;;
12135;SDS011;6131;56.420;15.548;2023-03-17T00:30:13;4.17;;;1.40;;
12135;SDS011;6131;56.420;15.548;2023-03-17T00:32:40;4.17;;;1.23;;
12135;SDS011;6131;56.420;15.548;2023-03-17T00:35:22;3.77;;;1.37;;
12135;SDS011;6131;56.420;15.548;2023-03-17T00:37:49;3.07;;;1.17;;
12135;SDS011;6131;56.420;15.548;2023-03-17T00:42:45;2.10;;;1.20;;
12135;SDS011;6131;56.420;15.548;2023-03-17T00:45:12;4.70;;;1.13;;
12135;SDS011;6131;56.420;15.548;2023-03-17T00:47:38;2.23;;;1.20;;
12135;SDS011;6131;56.420;15.548;2023-03-17T00:50:05;3.23;;;1.07;;
12135;SDS011;6131;56.420;15.548;2023-03-17T00:52:31;4.83;;;1.10;;
12135;SDS011;6131;56.420;15.548;2023-03-17T00:54:58;3.47;;;1.30;;
12135;SDS011;6131;56.420;15.548;2023-03-17T01:00:27;5.17;;;1.33;;
12135;SDS011;6131;56.420;15.548;2023-03-17T01:02:55;4.80;;;1.33;;
12135;SDS011;6131;56.420;15.548;2023-03-17T01:05:23;2.80;;;1.20;;
12135;SDS011;6131;56.420;15.548;2023-03-17T01:07:50;3.53;;;1.30;;
12135;SDS011;6131;56.420;15.548;2023-03-17T01:10:22;3.60;;;1.30;;
12135;SDS011;6131;56.420;15.548;2023-03-17T01:12:49;2.60;;;1.30;;
12135;SDS011;6131;56.420;15.548;2023-03-17T01:15:16;3.20;;;1.30;;
12135;SDS011;6131;56.420;15.548;2023-03-17T01:17:42;4.40;;;2.07;;
12135;SDS011;6131;56.420;15.548;2023-03-17T01:20:12;5.10;;;1.40;;
12135;SDS011;6131;56.420;15.548;2023-03-17T01:22:40;4.00;;;1.40;;
12135;SDS011;6131;56.420;15.548;2023-03-17T01:25:06;7.57;;;1.70;;
12135;SDS011;6131;56.420;15.548;2023-03-17T01:27:33;5.10;;;1.70;;
12135;SDS011;6131;56.420;15.548;2023-03-17T01:30:00;5.00;;;1.60;;
12135;SDS011;6131;56.420;15.548;2023-03-17T01:32:26;2.27;;;0.87;;
12135;SDS011;6131;56.420;15.548;2023-03-17T01:34:52;2.60;;;1.10;;
12135;SDS011;6131;56.420;15.548;2023-03-17T01:37:19;5.27;;;1.20;;
12135;SDS011;6131;56.420;15.548;2023-03-17T01:39:46;4.47;;;1.17;;
12135;SDS011;6131;56.420;15.548;2023-03-17T01:42:12;3.53;;;1.37;;
12135;SDS011;6131;56.420;15.548;2023-03-17T01:47:24;4.87;;;1.60;;
12135;SDS011;6131;56.420;15.548;2023-03-17T01:49:50;3.87;;;1.13;;
12135;SDS011;6131;56.420;15.548;2023-03-17T01:52:17;2.70;;;1.00;;
12135;SDS011;6131;56.420;15.548;2023-03-17T01:57:42;3.93;;;1.20;;
12135;SDS011;6131;56.420;15.548;2023-03-17T02:00:11;3.73;;;1.10;;
12135;SDS011;6131;56.420;15.548;2023-03-17T02:02:41;3.17;;;1.27;;
12135;SDS011;6131;56.420;15.548;2023-03-17T02:05:09;4.47;;;1.30;;
12135;SDS011;6131;56.420;15.548;2023-03-17T02:07:36;1.60;;;1.00;;
12135;SDS011;6131;56.420;15.548;2023-03-17T02:10:02;2.87;;;1.10;;
12135;SDS011;6131;56.420;15.548;2023-03-17T02:12:29;1.90;;;1.00;;
12135;SDS011;6131;56.420;15.548;2023-03-17T02:14:55;2.50;;;0.93;;
12135;SDS011;6131;56.420;15.548;2023-03-17T02:17:22;4.40;;;1.10;;
12135;SDS011;6131;56.420;15.548;2023-03-17T02:19:48;3.13;;;1.07;;
12135;SDS011;6131;56.420;15.548;2023-03-17T02:22:16;3.53;;;1.07;;
12135;SDS011;6131;56.420;15.548;2023-03-17T02:24:43;3.07;;;0.80;;
12135;SDS011;6131;56.420;15.548;2023-03-17T02:27:21;3.70;;;1.13;;
12135;SDS011;6131;56.420;15.548;2023-03-17T02:29:48;3.30;;;1.07;;
12135;SDS011;6131;56.420;15.548;2023-03-17T02:32:15;3.43;;;0.93;;
12135;SDS011;6131;56.420;15.548;2023-03-17T02:34:42;1.60;;;1.00;;
12135;SDS011;6131;56.420;15.548;2023-03-17T02:37:08;2.00;;;0.90;;
12135;SDS011;6131;56.420;15.548;2023-03-17T02:39:34;2.37;;;1.20;;
12135;SDS011;6131;56.420;15.548;2023-03-17T02:42:01;3.13;;;1.00;;
12135;SDS011;6131;56.420;15.548;2023-03-17T02:44:27;1.97;;;0.90;;
12135;SDS011;6131;56.420;15.548;2023-03-17T02:46:53;3.30;;;1.10;;
12135;SDS011;6131;56.420;15.548;2023-03-17T02:49:20;2.70;;;1.20;;
12135;SDS011;6131;56.420;15.548;2023-03-17T02:51:46;1.93;;;1.00;;
12135;SDS011;6131;56.420;15.548;2023-03-17T02:54:12;2.03;;;1.00;;
12135;SDS011;6131;56.420;15.548;2023-03-17T02:56:38;3.37;;;1.00;;
12135;SDS011;6131;56.420;15.548;2023-03-17T02:59:06;3.07;;;1.20;;
12135;SDS011;6131;56.420;15.548;2023-03-17T03:01:32;2.57;;;1.10;;
12135;SDS011;6131;56.420;15.548;2023-03-17T03:03:58;2.97;;;1.03;;
12135;SDS011;6131;56.420;15.548;2023-03-17T03:06:24;2.93;;;1.00;;
12135;SDS011;6131;56.420;15.548;2023-03-17T03:08:50;2.50;;;1.20;;
12135;SDS011;6131;56.420;15.548;2023-03-17T03:11:16;2.13;;;1.10;;
12135;SDS011;6131;56.420;15.548;2023-03-17T03:13:43;3.07;;;0.93;;
12135;SDS011;6131;56.420;15.548;2023-03-17T03:16:09;3.53;;;1.13;;
12135;SDS011;6131;56.420;15.548;2023-03-17T03:18:35;5.50;;;1.20;;
12135;SDS011;6131;56.420;15.548;2023-03-17T03:21:02;1.50;;;1.00;;
12135;SDS011;6131;56.420;15.548;2023-03-17T03:23:28;2.30;;;1.10;;
12135;SDS011;6131;56.420;15.548;2023-03-17T03:25:54;2.50;;;1.10;;
12135;SDS011;6131;56.420;15.548;2023-03-17T03:28:20;3.60;;;1.03;;
12135;SDS011;6131;56.420;15.548;2023-03-17T03:30:46;2.07;;;1.00;;
12135;SDS011;6131;56.420;15.548;2023-03-17T03:33:12;4.37;;;1.10;;
12135;SDS011;6131;56.420;15.548;2023-03-17T03:35:39;4.97;;;1.20;;
12135;SDS011;6131;56.420;15.548;2023-03-17T03:38:05;2.97;;;1.03;;
12135;SDS011;6131;56.420;15.548;2023-03-17T03:40:31;2.00;;;0.97;;
12135;SDS011;6131;56.420;15.548;2023-03-17T03:42:57;3.67;;;1.10;;
12135;SDS011;6131;56.420;15.548;2023-03-17T03:45:23;2.20;;;0.90;;
12135;SDS011;6131;56.420;15.548;2023-03-17T03:47:49;2.63;;;1.43;;
12135;SDS011;6131;56.420;15.548;2023-03-17T03:50:15;1.33;;;0.83;;
12135;SDS011;6131;56.420;15.548;2023-03-17T03:52:41;4.63;;;1.10;;
12135;SDS011;6131;56.420;15.548;2023-03-17T03:55:08;2.10;;;1.00;;
12135;SDS011;6131;56.420;15.548;2023-03-17T03:57:34;2.30;;;1.03;;
12135;SDS011;6131;56.420;15.548;2023-03-17T04:00:00;2.87;;;0.90;;
12135;SDS011;6131;56.420;15.548;2023-03-17T04:02:27;3.63;;;1.20;;
12135;SDS011;6131;56.420;15.548;2023-03-17T04:04:53;3.90;;;1.27;;
12135;SDS011;6131;56.420;15.548;2023-03-17T04:07:19;2.53;;;0.73;;
12135;SDS011;6131;56.420;15.548;2023-03-17T04:09:46;4.63;;;1.13;;
12135;SDS011;6131;56.420;15.548;2023-03-17T04:12:15;2.83;;;0.90;;
12135;SDS011;6131;56.420;15.548;2023-03-17T04:14:41;3.07;;;1.00;;
12135;SDS011;6131;56.420;15.548;2023-03-17T04:17:09;2.70;;;1.10;;
12135;SDS011;6131;56.420;15.548;2023-03-17T04:19:35;3.57;;;1.20;;
12135;SDS011;6131;56.420;15.548;2023-03-17T04:22:01;3.40;;;1.47;;
12135;SDS011;6131;56.420;15.548;2023-03-17T04:24:27;3.40;;;1.20;;
12135;SDS011;6131;56.420;15.548;2023-03-17T04:26:53;3.30;;;1.30;;
12135;SDS011;6131;56.420;15.548;2023-03-17T04:29:20;3.13;;;1.33;;
12135;SDS011;6131;56.420;15.548;2023-03-17T04:31:46;2.43;;;1.07;;
12135;SDS011;6131;56.420;15.548;2023-03-17T04:34:13;3.03;;;1.40;;
12135;SDS011;6131;56.420;15.548;2023-03-17T04:36:40;2.30;;;1.10;;
12135;SDS011;6131;56.420;15.548;2023-03-17T04:39:07;2.30;;;1.17;;
12135;SDS011;6131;56.420;15.548;2023-03-17T04:41:33;5.17;;;1.30;;
12135;SDS011;6131;56.420;15.548;2023-03-17T04:43:59;3.30;;;1.33;;
12135;SDS011;6131;56.420;15.548;2023-03-17T04:46:25;2.10;;;1.20;;
12135;SDS011;6131;56.420;15.548;2023-03-17T04:48:51;2.17;;;1.43;;
12135;SDS011;6131;56.420;15.548;2023-03-17T04:51:17;4.33;;;1.40;;
12135;SDS011;6131;56.420;15.548;2023-03-17T04:53:43;2.30;;;1.20;;
12135;SDS011;6131;56.420;15.548;2023-03-17T04:56:09;4.97;;;1.27;;
12135;SDS011;6131;56.420;15.548;2023-03-17T04:58:36;3.57;;;1.70;;
12135;SDS011;6131;56.420;15.548;2023-03-17T05:01:02;4.47;;;1.40;;
12135;SDS011;6131;56.420;15.548;2023-03-17T05:03:29;1.50;;;1.00;;
12135;SDS011;6131;56.420;15.548;2023-03-17T05:05:55;1.93;;;0.90;;
12135;SDS011;6131;56.420;15.548;2023-03-17T05:08:22;2.33;;;1.27;;
12135;SDS011;6131;56.420;15.548;2023-03-17T05:10:49;3.50;;;1.37;;
12135;SDS011;6131;56.420;15.548;2023-03-17T05:13:15;1.73;;;0.90;;
12135;SDS011;6131;56.420;15.548;2023-03-17T05:15:43;3.90;;;1.17;;
12135;SDS011;6131;56.420;15.548;2023-03-17T05:18:10;4.47;;;1.20;;
12135;SDS011;6131;56.420;15.548;2023-03-17T05:20:36;3.03;;;1.27;;
12135;SDS011;6131;56.420;15.548;2023-03-17T05:23:02;4.10;;;1.27;;
12135;SDS011;6131;56.420;15.548;2023-03-17T05:25:28;3.03;;;1.20;;
12135;SDS011;6131;56.420;15.548;2023-03-17T05:27:54;4.47;;;1.40;;
12135;SDS011;6131;56.420;15.548;2023-03-17T05:30:20;4.50;;;1.63;;
12135;SDS011;6131;56.420;15.548;2023-03-17T05:32:46;4.17;;;1.17;;
12135;SDS011;6131;56.420;15.548;2023-03-17T05:35:12;3.70;;;1.40;;
12135;SDS011;6131;56.420;15.548;2023-03-17T05:37:38;5.63;;;1.30;;
12135;SDS011;6131;56.420;15.548;2023-03-17T05:40:04;4.80;;;1.30;;
12135;SDS011;6131;56.420;15.548;2023-03-17T05:42:30;4.73;;;1.67;;
12135;SDS011;6131;56.420;15.548;2023-03-17T05:44:56;5.10;;;1.60;;
12135;SDS011;6131;56.420;15.548;2023-03-17T05:47:22;4.23;;;1.40;;
12135;SDS011;6131;56.420;15.548;2023-03-17T05:49:48;4.23;;;1.60;;
12135;SDS011;6131;56.420;15.548;2023-03-17T05:52:14;7.07;;;1.80;;
12135;SDS011;6131;56.420;15.548;2023-03-17T05:54:41;4.47;;;1.70;;
12135;SDS011;6131;56.420;15.548;2023-03-17T05:57:07;5.27;;;1.90;;
12135;SDS011;6131;56.420;15.548;2023-03-17T05:59:33;6.83;;;2.10;;
12135;SDS011;6131;56.420;15.548;2023-03-17T06:02:00;5.43;;;1.93;;
12135;SDS011;6131;56.420;15.548;2023-03-17T06:04:26;3.60;;;2.17;;
12135;SDS011;6131;56.420;15.548;2023-03-17T06:06:52;5.13;;;2.33;;
12135;SDS011;6131;56.420;15.548;2023-03-17T06:09:18;7.17;;;2.30;;
12135;SDS011;6131;56.420;15.548;2023-03-17T06:11:44;5.87;;;2.53;;
12135;SDS011;6131;56.420;15.548;2023-03-17T06:14:10;6.83;;;3.00;;
12135;SDS011;6131;56.420;15.548;2023-03-17T06:16:36;10.10;;;3.03;;
12135;SDS011;6131;56.420;15.548;2023-03-17T06:19:02;6.73;;;3.00;;
12135;SDS011;6131;56.420;15.548;2023-03-17T06:21:28;7.20;;;2.70;;
12135;SDS011;6131;56.420;15.548;2023-03-17T06:23:54;10.33;;;3.20;;
12135;SDS011;6131;56.420;15.548;2023-03-17T06:26:20;7.70;;;3.30;;
12135;SDS011;6131;56.420;15.548;2023-03-17T06:28:46;13.53;;;3.47;;
12135;SDS011;6131;56.420;15.548;2023-03-17T06:31:12;6.40;;;3.50;;
12135;SDS011;6131;56.420;15.548;2023-03-17T06:33:38;9.73;;;3.37;;
12135;SDS011;6131;56.420;15.548;2023-03-17T06:36:04;7.77;;;3.10;;
12135;SDS011;6131;56.420;15.548;2023-03-17T06:38:30;8.27;;;3.40;;
12135;SDS011;6131;56.420;15.548;2023-03-17T06:40:56;8.37;;;3.10;;
12135;SDS011;6131;56.420;15.548;2023-03-17T06:43:22;6.47;;;3.10;;
12135;SDS011;6131;56.420;15.548;2023-03-17T06:45:48;6.57;;;3.50;;
12135;SDS011;6131;56.420;15.548;2023-03-17T06:48:15;9.93;;;3.10;;
12135;SDS011;6131;56.420;15.548;2023-03-17T06:50:41;6.03;;;3.07;;
12135;SDS011;6131;56.420;15.548;2023-03-17T06:53:07;9.03;;;3.40;;
12135;SDS011;6131;56.420;15.548;2023-03-17T06:55:33;9.23;;;3.27;;
12135;SDS011;6131;56.420;15.548;2023-03-17T06:57:59;5.10;;;3.00;;
12135;SDS011;6131;56.420;15.548;2023-03-17T07:00:27;6.17;;;2.83;;
12135;SDS011;6131;56.420;15.548;2023-03-17T07:02:54;8.80;;;3.50;;
12135;SDS011;6131;56.420;15.548;2023-03-17T07:05:20;9.07;;;3.17;;
12135;SDS011;6131;56.420;15.548;2023-03-17T07:07:46;5.77;;;3.53;;
12135;SDS011;6131;56.420;15.548;2023-03-17T07:10:13;8.73;;;3.23;;
12135;SDS011;6131;56.420;15.548;2023-03-17T07:12:44;10.00;;;2.67;;
12135;SDS011;6131;56.420;15.548;2023-03-17T07:15:10;7.77;;;3.23;;
12135;SDS011;6131;56.420;15.548;2023-03-17T07:17:39;9.30;;;2.83;;
12135;SDS011;6131;56.420;15.548;2023-03-17T07:20:05;8.10;;;2.80;;
12135;SDS011;6131;56.420;15.548;2023-03-17T07:22:31;8.30;;;2.83;;
12135;SDS011;6131;56.420;15.548;2023-03-17T07:24:57;6.67;;;2.70;;
12135;SDS011;6131;56.420;15.548;2023-03-17T07:27:24;6.57;;;2.13;;
12135;SDS011;6131;56.420;15.548;2023-03-17T07:29:50;5.07;;;2.27;;
12135;SDS011;6131;56.420;15.548;2023-03-17T07:32:16;9.97;;;2.90;;
12135;SDS011;6131;56.420;15.548;2023-03-17T07:34:43;6.13;;;2.60;;
12135;SDS011;6131;56.420;15.548;2023-03-17T07:37:09;7.13;;;2.40;;
12135;SDS011;6131;56.420;15.548;2023-03-17T07:39:36;8.77;;;2.73;;
12135;SDS011;6131;56.420;15.548;2023-03-17T07:42:03;8.47;;;2.80;;
12135;SDS011;6131;56.420;15.548;2023-03-17T07:44:29;5.37;;;2.70;;
12135;SDS011;6131;56.420;15.548;2023-03-17T07:46:56;5.27;;;2.50;;
12135;SDS011;6131;56.420;15.548;2023-03-17T07:49:22;8.43;;;2.40;;
12135;SDS011;6131;56.420;15.548;2023-03-17T07:51:49;6.47;;;2.50;;
12135;SDS011;6131;56.420;15.548;2023-03-17T07:54:15;9.67;;;2.37;;
12135;SDS011;6131;56.420;15.548;2023-03-17T07:56:41;8.80;;;2.50;;
12135;SDS011;6131;56.420;15.548;2023-03-17T07:59:07;8.00;;;2.33;;
12135;SDS011;6131;56.420;15.548;2023-03-17T08:01:33;7.37;;;2.33;;
12135;SDS011;6131;56.420;15.548;2023-03-17T08:03:59;5.37;;;2.37;;
12135;SDS011;6131;56.420;15.548;2023-03-17T08:06:25;5.93;;;2.67;;
12135;SDS011;6131;56.420;15.548;2023-03-17T08:08:52;6.27;;;2.37;;
12135;SDS011;6131;56.420;15.548;2023-03-17T08:11:19;7.87;;;2.53;;
12135;SDS011;6131;56.420;15.548;2023-03-17T08:13:45;4.87;;;2.40;;
12135;SDS011;6131;56.420;15.548;2023-03-17T08:16:11;7.60;;;2.20;;
12135;SDS011;6131;56.420;15.548;2023-03-17T08:18:37;5.23;;;2.17;;
12135;SDS011;6131;56.420;15.548;2023-03-17T08:21:03;8.23;;;2.07;;
12135;SDS011;6131;56.420;15.548;2023-03-17T08:23:29;6.37;;;2.23;;
12135;SDS011;6131;56.420;15.548;2023-03-17T08:26:01;4.57;;;2.33;;
12135;SDS011;6131;56.420;15.548;2023-03-17T08:28:28;6.80;;;2.30;;
12135;SDS011;6131;56.420;15.548;2023-03-17T08:30:54;6.37;;;1.93;;
12135;SDS011;6131;56.420;15.548;2023-03-17T08:33:30;4.33;;;2.07;;
12135;SDS011;6131;56.420;15.548;2023-03-17T08:35:56;7.67;;;2.10;;
12135;SDS011;6131;56.420;15.548;2023-03-17T08:38:22;7.77;;;2.47;;
12135;SDS011;6131;56.420;15.548;2023-03-17T08:40:48;5.40;;;2.10;;
12135;SDS011;6131;56.420;15.548;2023-03-17T08:43:14;3.90;;;2.10;;
12135;SDS011;6131;56.420;15.548;2023-03-17T08:45:41;8.23;;;2.60;;
12135;SDS011;6131;56.420;15.548;2023-03-17T08:48:07;4.90;;;1.90;;
12135;SDS011;6131;56.420;15.548;2023-03-17T08:50:33;8.43;;;2.50;;
12135;SDS011;6131;56.420;15.548;2023-03-17T08:52:59;4.17;;;2.10;;
12135;SDS011;6131;56.420;15.548;2023-03-17T08:55:26;5.03;;;2.10;;
12135;SDS011;6131;56.420;15.548;2023-03-17T08:57:52;5.47;;;2.30;;
12135;SDS011;6131;56.420;15.548;2023-03-17T09:00:18;5.37;;;2.23;;
12135;SDS011;6131;56.420;15.548;2023-03-17T09:02:45;5.33;;;2.40;;
12135;SDS011;6131;56.420;15.548;2023-03-17T09:05:12;5.37;;;1.97;;
12135;SDS011;6131;56.420;15.548;2023-03-17T09:07:38;10.60;;;2.30;;
12135;SDS011;6131;56.420;15.548;2023-03-17T09:10:05;5.27;;;2.37;;
12135;SDS011;6131;56.420;15.548;2023-03-17T09:12:32;5.23;;;2.37;;
12135;SDS011;6131;56.420;15.548;2023-03-17T09:14:58;7.83;;;2.67;;
12135;SDS011;6131;56.420;15.548;2023-03-17T09:17:25;5.83;;;2.13;;
12135;SDS011;6131;56.420;15.548;2023-03-17T09:19:52;6.90;;;2.40;;
12135;SDS011;6131;56.420;15.548;2023-03-17T09:22:18;7.27;;;2.00;;
12135;SDS011;6131;56.420;15.548;2023-03-17T09:24:44;6.93;;;2.70;;
12135;SDS011;6131;56.420;15.548;2023-03-17T09:27:10;7.40;;;2.80;;
12135;SDS011;6131;56.420;15.548;2023-03-17T09:29:36;7.07;;;2.37;;
12135;SDS011;6131;56.420;15.548;2023-03-17T09:32:02;7.60;;;2.17;;
12135;SDS011;6131;56.420;15.548;2023-03-17T09:34:28;5.30;;;2.20;;
12135;SDS011;6131;56.420;15.548;2023-03-17T09:36:55;7.60;;;2.47;;
12135;SDS011;6131;56.420;15.548;2023-03-17T09:39:23;8.57;;;2.50;;
12135;SDS011;6131;56.420;15.548;2023-03-17T09:41:58;3.70;;;2.00;;
12135;SDS011;6131;56.420;15.548;2023-03-17T09:44:33;6.27;;;2.40;;
12135;SDS011;6131;56.420;15.548;2023-03-17T09:47:10;6.83;;;2.87;;
12135;SDS011;6131;56.420;15.548;2023-03-17T09:49:48;6.83;;;2.50;;
12135;SDS011;6131;56.420;15.548;2023-03-17T09:52:17;6.67;;;2.73;;
12135;SDS011;6131;56.420;15.548;2023-03-17T09:54:47;6.90;;;2.73;;
12135;SDS011;6131;56.420;15.548;2023-03-17T09:59:43;6.43;;;2.70;;
12135;SDS011;6131;56.420;15.548;2023-03-17T10:02:20;7.03;;;2.93;;
12135;SDS011;6131;56.420;15.548;2023-03-17T10:04:47;6.60;;;2.50;;
12135;SDS011;6131;56.420;15.548;2023-03-17T10:07:14;6.33;;;2.70;;
12135;SDS011;6131;56.420;15.548;2023-03-17T10:09:46;5.87;;;2.50;;
12135;SDS011;6131;56.420;15.548;2023-03-17T10:17:25;9.03;;;2.60;;
12135;SDS011;6131;56.420;15.548;2023-03-17T10:25:17;5.70;;;2.83;;
12135;SDS011;6131;56.420;15.548;2023-03-17T10:27:50;5.20;;;2.80;;
12135;SDS011;6131;56.420;15.548;2023-03-17T10:30:18;7.63;;;2.80;;
12135;SDS011;6131;56.420;15.548;2023-03-17T10:32:45;7.83;;;3.47;;
12135;SDS011;6131;56.420;15.548;2023-03-17T10:35:12;5.97;;;3.07;;
12135;SDS011;6131;56.420;15.548;2023-03-17T10:37:39;6.60;;;3.00;;
12135;SDS011;6131;56.420;15.548;2023-03-17T10:40:07;6.00;;;2.87;;
12135;SDS011;6131;56.420;15.548;2023-03-17T10:42:46;5.70;;;2.63;;
12135;SDS011;6131;56.420;15.548;2023-03-17T10:45:29;8.03;;;3.17;;
12135;SDS011;6131;56.420;15.548;2023-03-17T10:47:56;7.50;;;3.07;;
12135;SDS011;6131;56.420;15.548;2023-03-17T10:50:24;7.80;;;2.73;;
12135;SDS011;6131;56.420;15.548;2023-03-17T10:52:55;6.20;;;3.33;;
12135;SDS011;6131;56.420;15.548;2023-03-17T10:55:22;6.00;;;3.07;;
12135;SDS011;6131;56.420;15.548;2023-03-17T10:58:00;11.17;;;3.27;;
12135;SDS011;6131;56.420;15.548;2023-03-17T11:00:27;6.43;;;3.53;;
12135;SDS011;6131;56.420;15.548;2023-03-17T11:02:54;6.33;;;3.10;;
12135;SDS011;6131;56.420;15.548;2023-03-17T11:05:23;7.83;;;3.20;;
12135;SDS011;6131;56.420;15.548;2023-03-17T11:07:49;6.97;;;3.23;;
12135;SDS011;6131;56.420;15.548;2023-03-17T11:10:23;7.40;;;3.30;;
12135;SDS011;6131;56.420;15.548;2023-03-17T11:12:59;9.67;;;3.43;;
12135;SDS011;6131;56.420;15.548;2023-03-17T11:16:02;6.60;;;3.50;;
12135;SDS011;6131;56.420;15.548;2023-03-17T11:18:19;7.40;;;3.60;;
12135;SDS011;6131;56.420;15.548;2023-03-17T11:20:55;7.10;;;3.60;;
12135;SDS011;6131;56.420;15.548;2023-03-17T11:25:48;5.63;;;3.50;;
12135;SDS011;6131;56.420;15.548;2023-03-17T11:28:21;6.83;;;3.07;;
12135;SDS011;6131;56.420;15.548;2023-03-17T11:33:31;8.23;;;3.70;;
12135;SDS011;6131;56.420;15.548;2023-03-17T11:38:34;8.63;;;3.80;;
12135;SDS011;6131;56.420;15.548;2023-03-17T11:46:22;9.10;;;4.00;;
12135;SDS011;6131;56.420;15.548;2023-03-17T11:51:21;8.57;;;3.60;;
12135;SDS011;6131;56.420;15.548;2023-03-17T11:58:59;8.33;;;3.50;;
12135;SDS011;6131;56.420;15.548;2023-03-17T12:01:41;7.43;;;3.77;;
12135;SDS011;6131;56.420;15.548;2023-03-17T12:06:37;9.67;;;3.73;;
12135;SDS011;6131;56.420;15.548;2023-03-17T12:09:08;8.37;;;3.40;;
12135;SDS011;6131;56.420;15.548;2023-03-17T12:11:38;8.40;;;4.00;;
12135;SDS011;6131;56.420;15.548;2023-03-17T12:14:06;7.87;;;4.37;;
12135;SDS011;6131;56.420;15.548;2023-03-17T12:16:49;7.87;;;4.00;;
12135;SDS011;6131;56.420;15.548;2023-03-17T12:19:26;6.00;;;3.57;;
12135;SDS011;6131;56.420;15.548;2023-03-17T12:21:55;6.43;;;3.30;;
12135;SDS011;6131;56.420;15.548;2023-03-17T12:24:37;8.60;;;3.47;;
12135;SDS011;6131;56.420;15.548;2023-03-17T12:27:12;7.03;;;3.80;;
12135;SDS011;6131;56.420;15.548;2023-03-17T12:29:43;4.83;;;3.33;;
12135;SDS011;6131;56.420;15.548;2023-03-17T12:32:17;6.23;;;3.80;;
12135;SDS011;6131;56.420;15.548;2023-03-17T12:34:48;8.17;;;3.57;;
12135;SDS011;6131;56.420;15.548;2023-03-17T12:37:16;8.13;;;3.83;;
12135;SDS011;6131;56.420;15.548;2023-03-17T12:53:13;7.60;;;3.70;;
12135;SDS011;6131;56.420;15.548;2023-03-17T12:55:48;6.70;;;3.37;;
12135;SDS011;6131;56.420;15.548;2023-03-17T12:58:36;5.60;;;3.67;;
12135;SDS011;6131;56.420;15.548;2023-03-17T13:01:10;8.77;;;3.67;;
12135;SDS011;6131;56.420;15.548;2023-03-17T13:03:45;8.00;;;3.57;;
12135;SDS011;6131;56.420;15.548;2023-03-17T13:06:20;7.00;;;3.93;;
12135;SDS011;6131;56.420;15.548;2023-03-17T13:08:46;8.27;;;3.90;;
12135;SDS011;6131;56.420;15.548;2023-03-17T13:11:15;8.37;;;4.10;;
12135;SDS011;6131;56.420;15.548;2023-03-17T13:16:25;9.50;;;3.97;;
12135;SDS011;6131;56.420;15.548;2023-03-17T13:19:05;9.70;;;3.73;;
12135;SDS011;6131;56.420;15.548;2023-03-17T13:21:32;8.70;;;3.87;;
12135;SDS011;6131;56.420;15.548;2023-03-17T13:26:58;8.10;;;4.23;;
12135;SDS011;6131;56.420;15.548;2023-03-17T13:34:49;8.00;;;3.53;;
12135;SDS011;6131;56.420;15.548;2023-03-17T13:39:50;7.83;;;3.70;;
12135;SDS011;6131;56.420;15.548;2023-03-17T13:49:48;9.07;;;4.00;;
12135;SDS011;6131;56.420;15.548;2023-03-17T13:52:24;8.63;;;4.77;;
12135;SDS011;6131;56.420;15.548;2023-03-17T13:55:00;8.77;;;4.07;;
12135;SDS011;6131;56.420;15.548;2023-03-17T13:57:36;8.70;;;3.80;;
12135;SDS011;6131;56.420;15.548;2023-03-17T14:00:11;9.60;;;3.83;;
12135;SDS011;6131;56.420;15.548;2023-03-17T14:02:40;7.07;;;3.40;;
12135;SDS011;6131;56.420;15.548;2023-03-17T14:05:17;6.43;;;3.77;;
12135;SDS011;6131;56.420;15.548;2023-03-17T14:07:50;9.43;;;3.60;;
12135;SDS011;6131;56.420;15.548;2023-03-17T14:10:19;14.13;;;4.07;;
12135;SDS011;6131;56.420;15.548;2023-03-17T14:12:49;7.23;;;3.40;;
12135;SDS011;6131;56.420;15.548;2023-03-17T14:15:36;7.97;;;3.80;;
12135;SDS011;6131;56.420;15.548;2023-03-17T14:20:32;7.07;;;3.67;;
12135;SDS011;6131;56.420;15.548;2023-03-17T14:22:59;6.80;;;3.73;;
12135;SDS011;6131;56.420;15.548;2023-03-17T14:25:29;7.90;;;3.63;;
12135;SDS011;6131;56.420;15.548;2023-03-17T14:27:56;7.03;;;3.50;;
12135;SDS011;6131;56.420;15.548;2023-03-17T14:30:26;7.57;;;3.50;;
12135;SDS011;6131;56.420;15.548;2023-03-17T14:32:58;6.60;;;3.70;;
12135;SDS011;6131;56.420;15.548;2023-03-17T14:35:28;9.37;;;3.80;;
12135;SDS011;6131;56.420;15.548;2023-03-17T14:37:54;6.07;;;3.60;;
12135;SDS011;6131;56.420;15.548;2023-03-17T14:40:21;6.73;;;3.63;;
12135;SDS011;6131;56.420;15.548;2023-03-17T14:42:48;8.50;;;3.93;;
12135;SDS011;6131;56.420;15.548;2023-03-17T14:45:18;8.37;;;3.67;;
12135;SDS011;6131;56.420;15.548;2023-03-17T14:47:45;8.03;;;3.97;;
12135;SDS011;6131;56.420;15.548;2023-03-17T14:50:16;7.40;;;3.33;;
12135;SDS011;6131;56.420;15.548;2023-03-17T14:52:42;6.80;;;3.53;;
12135;SDS011;6131;56.420;15.548;2023-03-17T14:55:12;6.67;;;4.10;;
12135;SDS011;6131;56.420;15.548;2023-03-17T14:57:39;6.40;;;3.70;;
12135;SDS011;6131;56.420;15.548;2023-03-17T15:00:24;8.60;;;3.90;;
12135;SDS011;6131;56.420;15.548;2023-03-17T15:02:59;7.83;;;3.53;;
12135;SDS011;6131;56.420;15.548;2023-03-17T15:06:01;7.33;;;3.80;;
12135;SDS011;6131;56.420;15.548;2023-03-17T15:11:01;7.10;;;3.80;;
12135;SDS011;6131;56.420;15.548;2023-03-17T15:13:28;6.77;;;3.50;;
12135;SDS011;6131;56.420;15.548;2023-03-17T15:15:57;7.73;;;3.53;;
12135;SDS011;6131;56.420;15.548;2023-03-17T15:18:27;9.10;;;3.90;;
12135;SDS011;6131;56.420;15.548;2023-03-17T15:20:54;6.63;;;3.20;;
12135;SDS011;6131;56.420;15.548;2023-03-17T15:23:21;8.83;;;3.70;;
12135;SDS011;6131;56.420;15.548;2023-03-17T15:25:53;8.43;;;4.40;;
12135;SDS011;6131;56.420;15.548;2023-03-17T15:28:20;10.47;;;3.77;;
12135;SDS011;6131;56.420;15.548;2023-03-17T15:30:47;7.67;;;3.70;;
12135;SDS011;6131;56.420;15.548;2023-03-17T15:33:19;9.17;;;3.47;;
12135;SDS011;6131;56.420;15.548;2023-03-17T15:35:46;6.10;;;3.27;;
12135;SDS011;6131;56.420;15.548;2023-03-17T15:38:11;10.60;;;3.67;;
12135;SDS011;6131;56.420;15.548;2023-03-17T15:40:38;6.40;;;3.40;;
12135;SDS011;6131;56.420;15.548;2023-03-17T15:43:04;6.57;;;3.07;;
12135;SDS011;6131;56.420;15.548;2023-03-17T15:45:30;7.90;;;3.70;;
12135;SDS011;6131;56.420;15.548;2023-03-17T15:47:56;7.80;;;3.40;;
12135;SDS011;6131;56.420;15.548;2023-03-17T15:50:23;7.73;;;3.47;;
12135;SDS011;6131;56.420;15.548;2023-03-17T15:52:50;6.20;;;3.77;;
12135;SDS011;6131;56.420;15.548;2023-03-17T15:55:29;8.00;;;3.40;;
12135;SDS011;6131;56.420;15.548;2023-03-17T15:57:55;7.13;;;3.23;;
12135;SDS011;6131;56.420;15.548;2023-03-17T16:00:22;7.60;;;3.37;;
12135;SDS011;6131;56.420;15.548;2023-03-17T16:02:49;7.17;;;3.50;;
12135;SDS011;6131;56.420;15.548;2023-03-17T16:05:19;5.93;;;3.47;;
12135;SDS011;6131;56.420;15.548;2023-03-17T16:07:45;7.00;;;3.40;;
12135;SDS011;6131;56.420;15.548;2023-03-17T16:10:19;7.10;;;2.93;;
12135;SDS011;6131;56.420;15.548;2023-03-17T16:12:46;6.03;;;3.23;;
12135;SDS011;6131;56.420;15.548;2023-03-17T16:15:46;6.43;;;3.17;;
12135;SDS011;6131;56.420;15.548;2023-03-17T16:18:06;7.30;;;3.43;;
12135;SDS011;6131;56.420;15.548;2023-03-17T16:23:00;5.70;;;3.77;;